• Join FlightAware (Why Join?)
  • Login
  • US Flag 
12:24PM EDT


 

Airport Tracker/Info


-or-


 

Live Flight TrackerFlight Track Log ✈ SWA1259 ✈ 28-Apr-2013 ✈ KMDW - KLAS

Flight Track Log - Related Links

Times and Time Zones

All times are in EDT time to prevent confusion due to time zone crossing. See the SWA1259 flight status page for this flight to view local times or setup timezone preferences in your user account.

Time Position Orientation Groundspeed Altitude Reporting Facility
EDT Latitude Longitude Course Direction KTS MPH feet Rate Location/Type
12:02PM 41.8000 -87.7333 289° West 158 182 2,100  Level Chicago TRACON
12:03PM 41.8167 -87.8000 289° West 250 288 3,200 900 Climbing Chicago TRACON
12:04PM 41.7833 -87.9000 246° West 274 315 4,000 1,860 Climbing Chicago TRACON
12:05PM 41.7822 -87.9969 269° West 280 322 7,400 3,360 Climbing Chicago Center
12:06PM 41.7761 -88.1233 266° West 286 329 11,500 2,700 Climbing Chicago Center
12:08PM 41.7717 -88.2356 267° West 302 348 13,000 1,440 Climbing Chicago Center
12:09PM 41.7708 -88.3578 270° West 329 379 14,500 1,980 Climbing Chicago Center
12:10PM 41.7725 -88.4975 271° West 374 430 17,100 2,580 Climbing Chicago Center
12:11PM 41.7722 -88.6419 270° West 388 447 19,900 2,760 Climbing Chicago Center
12:12PM 41.7717 -88.8206 270° West 402 463 22,800 2,400 Climbing Chicago Center
12:13PM 41.7717 -88.9753 270° West 414 476 24,900 1,920 Climbing Chicago Center
12:14PM 41.7611 -89.1350 265° West 432 497 26,800 1,740 Climbing Chicago Center
12:15PM 41.7506 -89.2992 265° West 445 512 28,500 1,440 Climbing Chicago Center
12:16PM 41.7389 -89.4667 265° West 455 524 29,800 1,680 Climbing Chicago Center
12:17PM 41.7250 -89.6594 265° West 460 529 32,000 1,860 Climbing Chicago Center
12:18PM 41.7125 -89.8261 264° West 455 524 33,700 1,560 Climbing Chicago Center
12:19PM 41.7008 -89.9900 265° West 448 516 35,300 1,500 Climbing Chicago Center
12:20PM 41.6889 -90.1531 264° West 444 511 36,900 1,260 Climbing Chicago Center
12:21PM 41.6764 -90.3147 264° West 444 511 38,000 480 Climbing Chicago Center
12:22PM 41.6617 -90.4739 263° West 436 502 38,000  Level Chicago Center
12:23PM 41.6469 -90.6683 264° West 434 499 38,000  Level Chicago Center
12:24PM 41.6342 -90.8275 264° West 433 498 38,000  Level Chicago Center
12:25PM 41.6211 -90.9850 264° West 429 494 38,000  Level Chicago Center
12:26PM 41.6061 -91.1439 263° West 431 496 38,000  Level Chicago Center
12:27PM 41.5942 -91.2989 264° West 425 489 38,000  Level Chicago Center
12:28PM 41.5797 -91.4522 263° West 421 484 38,000  Level Chicago Center
12:29PM 41.5639 -91.6375 264° West 420 483 38,000  Level Chicago Center
12:30PM 41.5500 -91.7875 263° West 416 479 38,000  Level Chicago Center
12:31PM 41.5353 -91.9383 263° West 413 475 38,000  Level Chicago Center
12:32PM 41.5211 -92.0933 263° West 418 481 38,000  Level Chicago Center
12:33PM 41.5056 -92.2517 263° West 431 496 38,000  Level Chicago Center
12:34PM 41.4900 -92.4175 263° West 431 496 38,000  Level Chicago Center
12:35PM 41.4744 -92.5739 262° West 430 495 38,000  Level Chicago Center
12:36PM 41.4619 -92.7006 263° West 431 496 38,000  Level Minneapolis Center
12:37PM 41.4458 -92.8606 262° West 436 502 38,000  Level Minneapolis Center
12:38PM 41.4303 -93.0156 262° West 431 496 38,000  Level Minneapolis Center
12:39PM 41.4136 -93.1731 262° West 433 498 38,000  Level Minneapolis Center
12:40PM 41.3975 -93.3292 262° West 431 496 38,000  Level Minneapolis Center
12:41PM 41.3778 -93.5144 262° West 428 493 38,000  Level Minneapolis Center
12:42PM 41.3628 -93.6639 262° West 419 482 38,000  Level Minneapolis Center
12:43PM 41.3447 -93.8178 261° West 423 487 38,000  Level Minneapolis Center
12:44PM 41.3281 -93.9692 262° West 421 484 38,000  Level Minneapolis Center
12:46PM 41.3086 -94.1469 262° West 413 475 38,000  Level Minneapolis Center
12:47PM 41.2878 -94.3358 262° West 410 472 38,000  Level Minneapolis Center
12:48PM 41.2706 -94.4864 261° West 410 472 38,000  Level Minneapolis Center
12:49PM 41.2494 -94.6683 261° West 414 476 38,000  Level Minneapolis Center
12:50PM 41.2311 -94.8211 261° West 417 480 38,000  Level Minneapolis Center
12:51PM 41.2122 -94.9731 261° West 417 480 38,000  Level Minneapolis Center
12:52PM 41.1936 -95.1256 261° West 418 481 38,000  Level Minneapolis Center
12:53PM 41.1747 -95.2772 261° West 417 480 38,000  Level Minneapolis Center
12:54PM 41.1558 -95.4308 261° West 418 481 38,000  Level Minneapolis Center
12:55PM 41.1364 -95.5844 261° West 421 484 38,000  Level Minneapolis Center
12:56PM 41.1164 -95.7389 260° West 422 486 38,000  Level Minneapolis Center
12:57PM 41.0908 -95.9247 260° West 421 484 38,000  Level Minneapolis Center
12:58PM 41.0722 -96.0817 261° West 425 489 38,000  Level Minneapolis Center
12:59PM 41.0514 -96.2369 260° West 424 488 38,000  Level Minneapolis Center
01:00PM 41.0314 -96.3931 260° West 427 491 38,000  Level Minneapolis Center
01:01PM 41.0103 -96.5447 260° West 421 484 38,000  Level Minneapolis Center
01:02PM 40.9897 -96.6981 260° West 420 483 38,000  Level Minneapolis Center
01:03PM 40.9692 -96.8492 260° West 419 482 38,000  Level Minneapolis Center
01:04PM 40.9478 -96.9994 259° West 416 479 38,000  Level Minneapolis Center
01:05PM 40.9219 -97.1806 259° West 417 480 38,000  Level Minneapolis Center
01:06PM 40.9006 -97.3331 260° West 420 483 38,000  Level Minneapolis Center
01:07PM 40.8814 -97.4794 260° West 422 486 38,000  Level Minneapolis Center
01:08PM 40.8594 -97.6317 259° West 422 486 38,000  Level Minneapolis Center
01:09PM 40.8361 -97.7842 259° West 422 486 38,000  Level Minneapolis Center
01:10PM 40.8131 -97.9369 259° West 423 487 38,000  Level Minneapolis Center
01:12PM 40.7825 -98.1503 259° West 422 486 38,000  Level Minneapolis Center
01:13PM 40.7594 -98.3031 259° West 422 486 38,000  Level Minneapolis Center
01:14PM 40.7403 -98.4239 258° West 420 483 38,000  Level Minneapolis Center
01:15PM 40.7122 -98.6078 259° West 422 486 38,000  Level Minneapolis Center
01:16PM 40.6883 -98.7606 258° West 422 486 38,000  Level Minneapolis Center
01:17PM 40.6647 -98.9133 259° West 422 486 38,000  Level Minneapolis Center
01:18PM 40.6417 -99.0656 259° West 421 484 38,000  Level Minneapolis Center
01:19PM 40.6169 -99.2189 258° West 424 488 38,000  Level Denver Center
01:20PM 40.5928 -99.3697 258° West 423 487 38,000  Level Denver Center
01:21PM 40.5672 -99.5208 257° West 422 486 38,000  Level Denver Center
01:22PM 40.5383 -99.7017 258° West 420 483 38,000  Level Denver Center
01:23PM 40.5139 -99.8517 258° West 418 481 38,000  Level Denver Center
01:24PM 40.4881 -100.0036 257° West 419 482 38,000  Level Denver Center
01:25PM 40.4642 -100.1469 258° West 419 482 38,000  Level Denver Center
01:26PM 40.4364 -100.3136 258° West 416 479 38,000  Level Denver Center
01:27PM 40.4122 -100.4558 257° West 416 479 38,000  Level Denver Center
01:28PM 40.3786 -100.6469 257° West 419 482 38,000  Level Denver Center
01:29PM 40.3539 -100.7897 257° West 419 482 38,000  Level Denver Center
01:30PM 40.3242 -100.9578 257° West 421 484 38,000  Level Denver Center
01:31PM 40.2983 -101.1006 257° West 420 483 38,000  Level Denver Center
01:32PM 40.2686 -101.2689 257° West 425 489 38,000  Level Denver Center
01:33PM 40.2422 -101.4136 257° West 425 489 38,000  Level Denver Center
01:35PM 40.2128 -101.5831 257° West 427 491 38,000  Level Denver Center
01:36PM 40.1864 -101.7261 256° West 424 488 38,000  Level Denver Center
01:37PM 40.1592 -101.8692 256° West 422 486 38,000  Level Denver Center
01:38PM 40.1292 -102.0364 257° West 424 488 38,000  Level Denver Center
01:39PM 40.1025 -102.1783 256° West 423 487 38,000  Level Denver Center
01:40PM 40.0711 -102.3458 256° West 424 488 38,000  Level Denver Center
01:41PM 40.0442 -102.4872 256° West 422 486 38,000  Level Denver Center
01:42PM 40.0128 -102.6528 256° West 421 484 38,000  Level Denver Center
01:43PM 39.9831 -102.8075 256° West 419 482 38,000  Level Denver Center
01:44PM 39.9539 -102.9542 256° West 416 479 38,000  Level Denver Center
01:45PM 39.9194 -103.1256 255° West 417 480 38,000  Level Denver Center
01:46PM 39.8897 -103.2728 255° West 416 479 38,000  Level Denver Center
01:47PM 39.8617 -103.4206 256° West 417 480 38,000  Level Denver Center
01:48PM 39.8267 -103.5925 255° West 417 480 38,000  Level Denver Center
01:49PM 39.7964 -103.7406 255° West 420 483 38,000  Level Denver Center
01:50PM 39.7678 -103.8914 256° West 423 487 38,000  Level Denver Center
01:51PM 39.7367 -104.0375 255° West 417 480 38,000  Level Denver Center
01:52PM 39.7064 -104.1864 255° West 423 487 38,000  Level Denver Center
01:53PM 39.6753 -104.3328 255° West 415 478 38,000  Level Denver Center
01:54PM 39.6442 -104.4831 255° West 431 496 38,000  Level Denver Center
01:55PM 39.6117 -104.6325 254° West 428 493 38,000  Level Denver Center
01:56PM 39.5750 -104.8044 255° West 428 493 38,000  Level Denver Center
01:57PM 39.5458 -104.9408 255° West 417 480 38,000  Level Denver Center
01:59PM 39.5144 -105.0872 255° West 416 479 38,000  Level Denver Center
02:00PM 39.4761 -105.2619 254° West 427 491 38,000  Level Denver Center
02:01PM 39.4439 -105.4081 254° West 418 481 38,000  Level Denver Center
02:02PM 39.4103 -105.5575 254° West 427 491 38,000  Level Denver Center
02:03PM 39.3797 -105.7042 255° West 420 483 38,000  Level Denver Center
02:04PM 39.3453 -105.8531 253° West 426 490 38,000  Level Denver Center
02:05PM 39.3122 -106.0011 254° West 426 490 38,000  Level Denver Center
02:06PM 39.2803 -106.1475 254° West 422 486 38,000  Level Denver Center
02:07PM 39.2428 -106.3133 254° West 422 486 38,000  Level Denver Center
02:08PM 39.2114 -106.4519 254° West 421 484 38,000  Level Denver Center
02:09PM 39.1728 -106.6128 253° West 419 482 38,000  Level Denver Center
02:10PM 39.1403 -106.7508 253° West 421 484 38,000  Level Denver Center
02:11PM 39.1033 -106.9117 254° West 419 482 38,000  Level Denver Center
02:12PM 39.0706 -107.0481 253° West 418 481 38,000  Level Denver Center
02:13PM 39.0389 -107.1844 253° West 416 479 38,000  Level Denver Center
02:14PM 39.0011 -107.3453 253° West 416 479 38,000  Level Denver Center
02:15PM 38.9675 -107.4828 253° West 418 481 38,000  Level Denver Center
02:16PM 38.9286 -107.6417 253° West 417 480 38,000  Level Denver Center
02:17PM 38.8950 -107.7814 253° West 422 486 38,000  Level Denver Center
02:18PM 38.8561 -107.9428 253° West 423 487 38,000  Level Denver Center
02:19PM 38.8222 -108.0800 252° West 422 486 38,000  Level Denver Center
02:20PM 38.7822 -108.2394 252° West 420 483 38,000  Level Denver Center
02:21PM 38.7492 -108.3767 253° West 419 482 38,000  Level Denver Center
02:22PM 38.7147 -108.5133 252° West 420 483 38,000  Level Denver Center
02:23PM 38.6756 -108.6717 252° West 418 481 38,000  Level Denver Center
02:24PM 38.6406 -108.8078 252° West 419 482 38,000  Level Denver Center
02:25PM 38.5997 -108.9667 252° West 421 484 38,000  Level Denver Center
02:26PM 38.5650 -109.1036 252° West 421 484 38,000  Level Denver Center
02:27PM 38.5244 -109.2664 252° West 429 494 38,000  Level Denver Center
02:28PM 38.4878 -109.4028 251° West 426 490 38,000  Level Denver Center
02:30PM 38.4461 -109.5633 252° West 427 491 38,000  Level Denver Center
02:31PM 38.4031 -109.6992 248° West 429 494 38,000  Level Denver Center
02:32PM 38.3506 -109.8297 243° Southwest 431 496 38,000  Level Denver Center
02:33PM 38.2919 -109.9792 243° Southwest 422 486 38,000  Level Denver Center
02:34PM 38.2475 -110.0875 242° Southwest 429 494 38,000  Level Denver Center
02:35PM 38.1808 -110.2628 244° Southwest 431 496 38,000  Level Denver Center
02:36PM 38.1292 -110.3922 243° Southwest 430 495 38,000  Level Denver Center
02:37PM 38.0697 -110.5414 243° Southwest 426 490 38,000  Level Denver Center
02:38PM 38.0192 -110.6706 244° Southwest 427 491 38,000 -120 Level Denver Center
02:39PM 37.9642 -110.8022 242° Southwest 425 489 37,800 -600 Descending Denver Center
02:40PM 37.9117 -110.9361 244° Southwest 426 490 36,800 -840 Descending Denver Center
02:41PM 37.8453 -111.1008 243° Southwest 433 498 36,000 -420 Descending Salt Lake Center
02:42PM 37.7892 -111.2358 242° Southwest 434 499 36,000  Level Salt Lake Center
02:43PM 37.7350 -111.3725 243° Southwest 435 501 36,000 -300 Level Salt Lake Center
02:44PM 37.6775 -111.5081 242° Southwest 437 503 35,400 -900 Descending Salt Lake Center
02:45PM 37.6119 -111.6706 243° Southwest 435 501 34,200 -1,080 Descending Salt Lake Center
02:45PM 37.5994 -111.6981 240° Southwest 438 504 34,000 -840 Descending Denver Center
02:46PM 37.5431 -111.8361 243° Southwest 441 507 33,100 -1,020 Descending Denver Center
02:47PM 37.4967 -111.9483 243° Southwest 446 513 32,300 -660 Descending Salt Lake Center
02:48PM 37.4381 -112.0856 242° Southwest 446 513 32,000 -600 Descending Salt Lake Center
02:49PM 37.3803 -112.2242 242° Southwest 446 513 31,100 -1,020 Descending Salt Lake Center
02:50PM 37.3236 -112.3583 242° Southwest 438 504 30,000 -540 Descending Salt Lake Center
02:51PM 37.2547 -112.5194 242° Southwest 435 501 30,000  Level Los Angeles Center
02:52PM 37.2092 -112.6261 242° Southwest 432 497 30,000  Level Salt Lake Center
02:53PM 37.1536 -112.7594 242° Southwest 430 495 30,000  Level Salt Lake Center
02:54PM 37.0850 -112.9181 242° Southwest 429 494 30,000  Level Salt Lake Center
02:55PM 37.0283 -113.0497 242° Southwest 428 493 30,000  Level Los Angeles Center
02:57PM 36.9597 -113.2078 242° Southwest 430 495 30,000  Level Los Angeles Center
02:58PM 36.9019 -113.3397 241° Southwest 431 496 30,000 -240 Level Los Angeles Center
02:59PM 36.8442 -113.4711 241° Southwest 432 497 29,600 -1,260 Descending Los Angeles Center
03:00PM 36.7886 -113.6014 242° Southwest 426 490 27,400 -2,220 Descending Los Angeles Center
03:01PM 36.7336 -113.7261 241° Southwest 414 476 25,100 -2,220 Descending Los Angeles Center
03:02PM 36.6808 -113.8469 241° Southwest 401 461 22,900 -2,280 Descending Los Angeles Center
03:03PM 36.6189 -113.9867 241° Southwest 385 443 20,400 -2,280 Descending Los Angeles Center
03:04PM 36.5678 -114.0997 241° Southwest 376 433 18,300 -2,040 Descending Los Angeles Center
03:05PM 36.5194 -114.2094 241° Southwest 365 420 16,200 -2,100 Descending Los Angeles Center
03:06PM 36.4742 -114.3161 242° Southwest 353 406 14,300 -2,100 Descending Los Angeles Center
03:06PM 36.4503 -114.3644 238° Southwest 352 405 13,300 -1,680 Descending Los Angeles Center
03:07PM 36.4222 -114.4169 236° Southwest 355 409 12,300 -1,260 Descending Los Angeles Center
03:07PM 36.3958 -114.4794 242° Southwest 327 376 11,900 -1,080 Descending Los Angeles Center
03:08PM 36.3581 -114.5200 221° Southwest 318 366 11,200 -1,200 Descending Los Angeles Center
03:08PM 36.3211 -114.5422 206° Southwest 303 349 10,600 -780 Descending Los Angeles Center
03:09PM 36.2797 -114.5522 191° South 294 338 10,400 -540 Descending Los Angeles Center
03:09PM 36.2422 -114.5664 197° South 269 310 10,100 -600 Descending Los Angeles Center
03:10PM 36.2078 -114.5725 188° South 272 313 9,800 -900 Descending Los Angeles Center
03:10PM 36.1775 -114.5961 212° Southwest 249 287 9,200 -1,200 Descending Los Angeles Center
03:11PM 36.1561 -114.6225 225° Southwest 253 291 8,600 -1,140 Descending Los Angeles Center
03:12PM 36.1236 -114.6650 227° Southwest 260 299 8,000 -600 Descending Los Angeles Center
03:12PM 36.1061 -114.6872 226° Southwest 254 292 8,000 -420 Level Los Angeles Center
03:12PM 36.0828 -114.7161 225° Southwest 245 282 7,700 -1,020 Descending Los Angeles Center
03:13PM 36.0733 -114.7572 254° West 255 293 7,000 -660 Descending Los Angeles Center
03:14PM 36.0736 -114.8017 270° West 233 268 7,000 -180 Level Los Angeles Center
03:14PM 36.0736 -114.8569 270° West 219 252 6,800 -840 Descending Los Angeles Center
03:15PM 36.0744 -114.9231 271° West 203 234 5,500 -1,320 Descending Los Angeles Center
03:16PM 36.0747 -114.9894 270° West 197 227 4,100 -1,140 Descending Los Angeles Center
03:17PM 36.0742 -115.0500 269° West 189 217 3,200 -840 Descending Los Angeles Center
03:18PM 36.0742 -115.1039 270° West 174 200 2,400 -780 Descending Los Angeles Center
03:20PM 36.0667 -115.1500 219° Southwest  Level FlightAware Approximate
03:27PM 36.0801 -115.1523 219° Southwest  Level Estimated